Time;durP1;ratioP1;P1;durP2;ratioP2;P2;SDS_P1;SDS_P2;PMS_P1;PMS_P2;Temp;Humidity;BMP_temperature;BMP_pressure;BME280_temperature;BME280_humidity;BME280_pressure;Samples;Min_cycle;Max_cycle;Signal;HPM_P1;HPM_P2
2021/08/16 00:01:10;;;;;;;9.05;6.72;;;22.40;82.30;;;;;;5003701;28;20026;-63
2021/08/16 00:03:36;;;;;;;11.30;7.55;;;22.40;82.30;;;;;;4986332;28;20053;-63
2021/08/16 00:06:01;;;;;;;9.13;7.13;;;22.40;82.40;;;;;;4988499;28;20034;-63
2021/08/16 00:08:27;;;;;;;12.60;7.30;;;22.40;82.50;;;;;;4988883;28;20034;-63
2021/08/16 00:10:53;;;;;;;11.18;7.10;;;22.40;82.40;;;;;;4982420;28;20046;-63
2021/08/16 00:13:20;;;;;;;10.77;7.72;;;22.40;83.60;;;;;;4984467;28;20049;-63
2021/08/16 00:15:46;;;;;;;8.95;7.55;;;22.40;82.90;;;;;;4987290;28;20128;-63
2021/08/16 00:18:12;;;;;;;11.70;7.30;;;22.50;82.80;;;;;;4974953;28;20038;-62
2021/08/16 00:20:38;;;;;;;11.93;7.38;;;22.50;82.60;;;;;;4983599;28;20041;-63
2021/08/16 00:23:04;;;;;;;9.65;7.50;;;22.50;82.70;;;;;;4975874;28;21526;-63
2021/08/16 00:25:30;;;;;;;9.98;7.47;;;22.50;82.60;;;;;;4973020;28;20044;-63
2021/08/16 00:27:56;;;;;;;11.30;7.18;;;22.60;82.50;;;;;;4972892;28;20058;-63
2021/08/16 00:30:21;;;;;;;9.95;7.00;;;22.60;83.30;;;;;;4973108;28;20034;-63
2021/08/16 00:32:49;;;;;;;11.85;7.10;;;22.60;82.60;;;;;;4978106;28;20054;-63
2021/08/16 00:35:15;;;;;;;9.65;6.90;;;22.60;82.30;;;;;;4981740;28;20034;-63
2021/08/16 00:37:41;;;;;;;10.75;7.03;;;22.60;82.00;;;;;;4988258;28;20081;-63
2021/08/16 00:40:08;;;;;;;9.02;6.28;;;22.60;82.00;;;;;;4980395;28;20030;-63
2021/08/16 00:42:33;;;;;;;9.45;7.10;;;22.60;81.90;;;;;;4979407;28;20035;-63
2021/08/16 00:44:59;;;;;;;8.55;6.60;;;22.70;82.50;;;;;;4984498;28;20468;-63
2021/08/16 00:47:27;;;;;;;11.10;6.80;;;22.70;81.60;;;;;;4979557;28;20116;-63
2021/08/16 00:49:53;;;;;;;13.63;7.68;;;22.70;81.70;;;;;;4978399;28;20049;-63
2021/08/16 00:52:19;;;;;;;13.60;6.95;;;22.70;81.70;;;;;;4978878;28;20039;-63
2021/08/16 00:54:45;;;;;;;14.82;8.38;;;22.70;81.90;;;;;;4979477;28;20064;-63
2021/08/16 00:57:11;;;;;;;13.43;8.35;;;22.70;82.10;;;;;;4980328;28;20057;-63
2021/08/16 00:59:36;;;;;;;12.90;8.50;;;22.60;82.20;;;;;;4979440;28;20038;-63
2021/08/16 01:02:02;;;;;;;13.02;8.95;;;22.60;82.40;;;;;;4970020;28;20038;-63
2021/08/16 01:04:29;;;;;;;15.73;8.50;;;22.60;82.60;;;;;;4985943;28;20068;-63
2021/08/16 01:06:55;;;;;;;14.50;8.50;;;22.60;82.70;;;;;;4987314;28;20088;-63
2021/08/16 01:09:21;;;;;;;11.80;8.68;;;22.60;82.60;;;;;;4989274;28;20031;-63
2021/08/16 01:11:50;;;;;;;11.00;8.13;;;22.60;82.70;;;;;;4979374;28;20117;-63
2021/08/16 01:14:16;;;;;;;11.98;8.95;;;22.60;83.00;;;;;;4975889;28;20043;-63
2021/08/16 01:16:42;;;;;;;16.00;8.95;;;22.60;82.70;;;;;;4986697;28;20040;-63
2021/08/16 01:19:08;;;;;;;13.85;8.00;;;22.60;82.70;;;;;;4984201;28;20054;-63
2021/08/16 01:21:34;;;;;;;15.57;8.45;;;22.60;82.90;;;;;;4985494;28;20088;-63
2021/08/16 01:24:00;;;;;;;15.25;9.00;;;22.60;82.80;;;;;;4986359;28;20042;-63
2021/08/16 01:26:26;;;;;;;15.10;9.00;;;22.60;82.80;;;;;;4984897;28;20031;-63
2021/08/16 01:28:52;;;;;;;11.05;8.27;;;22.60;82.90;;;;;;4988103;28;20461;-63
2021/08/16 01:31:18;;;;;;;14.30;8.32;;;22.60;82.80;;;;;;4980102;28;20043;-63
2021/08/16 01:33:43;;;;;;;10.02;8.15;;;22.50;82.80;;;;;;4985703;28;20031;-63
2021/08/16 01:36:09;;;;;;;15.02;8.10;;;22.50;82.90;;;;;;4983837;28;20039;-63
2021/08/16 01:38:40;;;;;;;11.75;8.45;;;22.50;82.90;;;;;;4987528;28;20030;-63
2021/08/16 01:41:06;;;;;;;12.70;8.35;;;22.50;83.00;;;;;;4979414;28;20073;-63
2021/08/16 01:43:32;;;;;;;11.23;7.40;;;22.50;82.70;;;;;;4974018;28;20129;-63
2021/08/16 01:45:59;;;;;;;12.02;7.68;;;22.50;82.60;;;;;;4981744;28;20031;-63
2021/08/16 01:48:25;;;;;;;10.50;7.38;;;22.50;82.60;;;;;;5000105;28;20034;-63
2021/08/16 01:50:51;;;;;;;13.98;8.48;;;22.50;82.60;;;;;;4983818;28;20026;-63
2021/08/16 01:53:16;;;;;;;15.95;8.50;;;22.50;82.60;;;;;;5003318;28;20061;-63
2021/08/16 01:55:42;;;;;;;13.45;8.57;;;22.50;82.40;;;;;;4988747;28;20038;-62
2021/08/16 01:58:09;;;;;;;12.10;9.02;;;22.40;82.50;;;;;;4979825;28;20042;-62
2021/08/16 02:00:34;;;;;;;15.95;8.25;;;22.40;82.60;;;;;;4973900;28;20047;-63
2021/08/16 02:03:00;;;;;;;15.82;8.73;;;22.40;82.70;;;;;;4987531;28;20039;-63
2021/08/16 02:05:26;;;;;;;13.63;8.32;;;22.40;82.80;;;;;;4981335;28;20572;-63
2021/08/16 02:07:51;;;;;;;11.20;8.55;;;22.30;82.90;;;;;;5003041;28;20068;-63
2021/08/16 02:10:17;;;;;;;11.45;8.30;;;22.30;82.90;;;;;;4981237;28;20038;-63
2021/08/16 02:12:43;;;;;;;11.43;8.13;;;22.30;82.90;;;;;;4979230;28;20375;-63
2021/08/16 02:15:10;;;;;;;12.20;7.72;;;22.20;82.80;;;;;;4987977;28;20045;-63
2021/08/16 02:17:36;;;;;;;12.68;8.00;;;22.10;82.80;;;;;;4976929;28;20039;-63
2021/08/16 02:20:04;;;;;;;13.85;7.43;;;22.10;83.80;;;;;;4985427;28;20034;-63
2021/08/16 02:22:30;;;;;;;16.05;7.97;;;22.00;83.30;;;;;;4983407;28;20445;-63
2021/08/16 02:24:55;;;;;;;12.43;7.75;;;22.00;83.30;;;;;;4986047;28;20026;-63
2021/08/16 02:27:21;;;;;;;11.57;7.97;;;22.00;83.40;;;;;;4986324;28;20030;-63
2021/08/16 02:29:47;;;;;;;14.30;7.38;;;22.00;83.40;;;;;;4997208;28;20039;-63
2021/08/16 02:32:13;;;;;;;10.75;8.13;;;22.00;83.20;;;;;;4978449;28;20447;-62
2021/08/16 02:34:38;;;;;;;15.73;7.43;;;22.00;83.00;;;;;;4984208;28;20038;-63
2021/08/16 02:37:04;;;;;;;12.25;7.85;;;22.00;82.80;;;;;;4985634;28;20127;-63
2021/08/16 02:39:30;;;;;;;12.13;7.75;;;21.90;82.70;;;;;;4985107;28;20030;-63
2021/08/16 02:41:56;;;;;;;12.30;8.40;;;21.90;82.80;;;;;;5000229;28;20036;-63
2021/08/16 02:44:21;;;;;;;11.15;8.43;;;21.80;83.10;;;;;;4976672;28;20030;-63
2021/08/16 02:46:47;;;;;;;9.63;8.57;;;21.70;83.40;;;;;;4982514;28;20046;-63
2021/08/16 02:49:12;;;;;;;10.52;7.30;;;21.70;83.90;;;;;;4986206;28;20517;-63
2021/08/16 02:51:38;;;;;;;10.73;7.65;;;21.70;84.20;;;;;;4984455;28;20540;-63
2021/08/16 02:54:04;;;;;;;8.98;7.57;;;21.70;84.60;;;;;;4986739;28;20037;-63
2021/08/16 02:56:30;;;;;;;11.50;6.63;;;21.70;84.80;;;;;;4980272;28;20089;-63
2021/08/16 02:58:56;;;;;;;8.32;7.22;;;21.70;84.90;;;;;;4984761;28;20129;-63
2021/08/16 03:01:22;;;;;;;11.48;6.75;;;21.70;85.00;;;;;;4983324;28;20034;-62
2021/08/16 03:03:47;;;;;;;13.90;7.80;;;21.70;84.90;;;;;;4980235;28;20645;-63
2021/08/16 03:06:13;;;;;;;8.77;6.95;;;21.80;84.60;;;;;;4987282;28;20033;-63
2021/08/16 03:08:39;;;;;;;9.30;6.97;;;21.80;84.60;;;;;;4983986;28;20410;-63
2021/08/16 03:11:05;;;;;;;9.10;7.10;;;21.80;84.30;;;;;;4980637;28;20050;-63
2021/08/16 03:13:33;;;;;;;9.02;7.13;;;21.90;84.10;;;;;;4984347;28;20486;-65
2021/08/16 03:15:59;;;;;;;8.82;7.03;;;21.80;84.00;;;;;;4985493;28;20038;-63
2021/08/16 03:18:24;;;;;;;7.95;7.13;;;21.90;84.00;;;;;;4984972;28;20121;-63
2021/08/16 03:20:51;;;;;;;9.65;7.35;;;21.90;83.90;;;;;;4986962;28;20042;-63
2021/08/16 03:23:17;;;;;;;10.52;6.95;;;22.00;83.80;;;;;;4980981;28;20050;-63
2021/08/16 03:25:42;;;;;;;8.15;7.05;;;22.00;83.60;;;;;;4983100;28;20497;-63
2021/08/16 03:28:08;;;;;;;11.20;7.50;;;22.00;83.50;;;;;;4991089;28;20038;-63
2021/08/16 03:30:34;;;;;;;10.00;6.80;;;22.00;83.50;;;;;;4982351;28;20421;-62
2021/08/16 03:32:59;;;;;;;10.07;7.75;;;21.90;83.40;;;;;;4987299;28;20046;-63
2021/08/16 03:35:25;;;;;;;9.02;7.07;;;21.90;83.40;;;;;;4985844;28;20079;-63
2021/08/16 03:37:50;;;;;;;15.13;7.78;;;21.90;83.40;;;;;;4986747;28;20574;-63
2021/08/16 03:40:16;;;;;;;7.53;6.78;;;21.90;83.30;;;;;;4990750;28;20038;-62
2021/08/16 03:42:42;;;;;;;11.65;7.28;;;22.00;83.20;;;;;;4989351;28;20043;-63
2021/08/16 03:45:15;;;;;;;12.77;7.20;;;22.00;83.10;;;;;;4982627;28;20038;-62
2021/08/16 03:47:41;;;;;;;9.00;7.50;;;21.90;83.00;;;;;;4995888;28;20046;-63
2021/08/16 03:50:07;;;;;;;9.75;7.18;;;21.90;82.80;;;;;;4996827;28;20042;-63
2021/08/16 03:52:33;;;;;;;9.40;6.85;;;21.90;82.70;;;;;;4988304;28;20090;-63
2021/08/16 03:54:58;;;;;;;10.55;6.93;;;21.80;82.70;;;;;;4986777;28;20328;-63
2021/08/16 03:57:24;;;;;;;9.07;6.30;;;21.80;82.80;;;;;;4990408;28;20075;-63
2021/08/16 03:59:50;;;;;;;7.22;6.38;;;21.70;82.80;;;;;;4987447;28;20121;-63
2021/08/16 04:02:16;;;;;;;7.00;6.20;;;21.70;82.90;;;;;;4985120;28;20030;-63
2021/08/16 04:04:41;;;;;;;9.30;6.63;;;21.70;83.10;;;;;;4984968;28;20576;-63
2021/08/16 04:07:07;;;;;;;8.90;6.53;;;21.70;83.30;;;;;;4990355;28;20038;-63
2021/08/16 04:09:33;;;;;;;6.32;5.43;;;21.70;83.30;;;;;;4988056;28;20498;-63
2021/08/16 04:11:58;;;;;;;5.55;4.80;;;21.60;83.00;;;;;;4984055;28;20034;-63
2021/08/16 04:14:24;;;;;;;5.85;4.88;;;21.60;82.70;;;;;;4988587;28;20026;-62
2021/08/16 04:16:50;;;;;;;6.28;5.03;;;21.60;82.70;;;;;;4984599;28;20615;-63
2021/08/16 04:19:17;;;;;;;7.32;5.05;;;21.60;82.60;;;;;;4985386;28;20265;-63
2021/08/16 04:21:43;;;;;;;5.55;4.55;;;21.60;82.30;;;;;;5001728;28;20405;-63
2021/08/16 04:24:09;;;;;;;6.03;4.07;;;21.60;82.20;;;;;;4985707;28;20034;-63
2021/08/16 04:26:34;;;;;;;6.97;4.93;;;21.60;82.10;;;;;;4986580;28;20047;-63
2021/08/16 04:29:00;;;;;;;5.22;4.45;;;21.60;82.10;;;;;;4988671;28;20040;-63
2021/08/16 04:31:26;;;;;;;5.80;4.70;;;21.70;82.20;;;;;;4987206;28;20026;-63
2021/08/16 04:33:52;;;;;;;7.05;5.22;;;21.70;82.20;;;;;;4981909;28;20031;-62
2021/08/16 04:36:17;;;;;;;8.20;5.57;;;21.60;82.00;;;;;;4982768;28;20062;-62
2021/08/16 04:38:43;;;;;;;6.28;5.03;;;21.60;82.00;;;;;;4988459;28;20062;-63
2021/08/16 04:41:08;;;;;;;5.88;5.25;;;21.60;82.00;;;;;;4985107;28;20053;-62
2021/08/16 04:43:34;;;;;;;7.47;5.45;;;21.50;82.30;;;;;;4982204;28;20053;-62
2021/08/16 04:46:00;;;;;;;8.85;5.95;;;21.50;82.60;;;;;;4985408;28;20118;-65
2021/08/16 04:48:25;;;;;;;8.57;5.95;;;21.50;82.90;;;;;;4984838;28;20039;-65
2021/08/16 04:50:51;;;;;;;7.90;6.10;;;21.50;83.20;;;;;;4984694;28;20034;-65
2021/08/16 04:53:17;;;;;;;12.60;5.82;;;21.40;83.40;;;;;;4987490;28;20134;-63
2021/08/16 04:55:43;;;;;;;7.65;4.90;;;21.40;83.40;;;;;;4981320;28;20026;-62
2021/08/16 04:58:09;;;;;;;5.40;4.90;;;21.40;83.40;;;;;;4990080;28;20026;-62
2021/08/16 05:00:35;;;;;;;5.43;4.78;;;21.40;83.40;;;;;;4984485;28;20061;-62
2021/08/16 05:03:02;;;;;;;7.60;4.35;;;21.40;83.40;;;;;;4985255;28;20088;-63
2021/08/16 05:05:30;;;;;;;6.93;4.07;;;21.40;83.10;;;;;;4989815;28;20038;-63
2021/08/16 05:07:57;;;;;;;5.70;3.78;;;21.40;82.90;;;;;;4982033;28;20031;-63
2021/08/16 05:10:24;;;;;;;5.72;3.85;;;21.40;82.90;;;;;;4984748;28;20046;-63
2021/08/16 05:12:52;;;;;;;4.80;3.75;;;21.40;82.90;;;;;;4985857;28;20062;-62
2021/08/16 05:15:19;;;;;;;6.80;3.75;;;21.40;83.00;;;;;;4989251;28;20422;-63
2021/08/16 05:17:45;;;;;;;5.53;3.75;;;21.40;82.90;;;;;;4985304;28;20031;-63
2021/08/16 05:20:12;;;;;;;4.20;3.60;;;21.40;82.90;;;;;;4986025;28;20197;-63
2021/08/16 05:22:41;;;;;;;5.13;3.80;;;21.40;83.00;;;;;;4979846;28;20502;-62
2021/08/16 05:25:07;;;;;;;4.22;3.30;;;21.40;83.00;;;;;;4988516;28;20027;-63
2021/08/16 05:27:33;;;;;;;3.50;3.20;;;21.40;83.20;;;;;;4984704;28;20030;-63
2021/08/16 05:29:59;;;;;;;6.32;3.58;;;21.40;83.20;;;;;;4986575;28;20037;-63
2021/08/16 05:32:24;;;;;;;5.80;3.50;;;21.50;83.40;;;;;;4984191;28;20085;-63
2021/08/16 05:34:50;;;;;;;3.63;3.20;;;21.50;83.40;;;;;;4985800;28;20463;-63
2021/08/16 05:37:16;;;;;;;3.83;3.42;;;21.50;83.30;;;;;;5001924;28;20027;-63
2021/08/16 05:39:42;;;;;;;5.47;2.97;;;21.50;83.40;;;;;;4988187;28;20030;-63
2021/08/16 05:42:07;;;;;;;3.35;3.05;;;21.50;83.40;;;;;;4986900;28;20068;-63
2021/08/16 05:44:33;;;;;;;4.10;3.03;;;21.60;83.40;;;;;;4985146;28;20048;-63
2021/08/16 05:47:02;;;;;;;3.30;3.00;;;21.60;83.40;;;;;;4986979;28;20038;-62
2021/08/16 05:49:28;;;;;;;3.63;3.08;;;21.70;83.30;;;;;;4987168;28;20096;-62
2021/08/16 05:51:54;;;;;;;4.30;3.22;;;21.70;83.10;;;;;;4986906;28;20035;-62
2021/08/16 05:54:19;;;;;;;3.78;3.15;;;21.70;83.10;;;;;;4982496;28;20051;-63
2021/08/16 05:56:45;;;;;;;4.05;3.22;;;21.70;83.00;;;;;;4984213;28;20391;-62
2021/08/16 05:59:11;;;;;;;4.43;3.40;;;21.80;82.90;;;;;;4984587;28;20054;-63
2021/08/16 06:01:39;;;;;;;4.20;3.30;;;21.70;82.90;;;;;;4985415;28;20072;-63
2021/08/16 06:04:06;;;;;;;7.07;3.50;;;21.70;82.90;;;;;;4982208;28;20038;-63
2021/08/16 06:06:32;;;;;;;7.85;3.38;;;21.80;83.30;;;;;;4987993;28;20030;-63
2021/08/16 06:08:58;;;;;;;5.35;3.60;;;21.80;83.40;;;;;;4986263;28;20105;-62
2021/08/16 06:11:24;;;;;;;4.53;3.20;;;21.80;83.30;;;;;;4983231;28;20039;-63
2021/08/16 06:13:50;;;;;;;5.30;3.17;;;21.90;83.30;;;;;;4982576;28;20035;-62
2021/08/16 06:16:16;;;;;;;4.82;3.38;;;21.90;83.30;;;;;;4986494;28;20089;-63
2021/08/16 06:18:42;;;;;;;7.45;3.40;;;21.90;83.30;;;;;;5002468;28;22327;-63
2021/08/16 06:21:08;;;;;;;5.43;3.60;;;21.90;83.30;;;;;;4981717;28;20031;-63
2021/08/16 06:23:34;;;;;;;6.22;3.65;;;22.00;83.50;;;;;;4998702;28;20039;-62
2021/08/16 06:26:01;;;;;;;7.03;3.97;;;22.00;83.70;;;;;;4983573;28;20057;-63
2021/08/16 06:28:26;;;;;;;4.82;3.92;;;22.10;83.70;;;;;;4983099;28;20061;-62
2021/08/16 06:30:52;;;;;;;8.38;4.38;;;22.10;83.70;;;;;;4985717;28;20061;-63
2021/08/16 06:33:18;;;;;;;4.72;4.07;;;22.20;83.60;;;;;;4986253;28;20033;-63
2021/08/16 06:35:43;;;;;;;8.60;4.60;;;22.30;83.80;;;;;;4985623;28;20044;-63
2021/08/16 06:38:20;;;;;;;5.80;4.50;;;22.30;83.60;;;;;;4986868;28;20524;-63
2021/08/16 06:40:47;;;;;;;4.68;3.92;;;22.40;83.60;;;;;;4974001;28;20069;-64
2021/08/16 06:43:13;;;;;;;5.82;4.60;;;22.40;83.40;;;;;;4969078;28;20038;-63
2021/08/16 06:45:38;;;;;;;5.35;4.80;;;22.40;83.20;;;;;;4978335;28;20039;-63
2021/08/16 06:48:04;;;;;;;5.35;4.53;;;22.50;83.10;;;;;;4982566;28;20042;-62
2021/08/16 06:50:30;;;;;;;7.60;4.05;;;22.50;83.20;;;;;;4979671;28;20719;-63
2021/08/16 06:52:55;;;;;;;7.50;4.63;;;22.60;83.20;;;;;;4980600;28;20612;-63
2021/08/16 06:55:21;;;;;;;5.53;4.55;;;22.60;83.20;;;;;;4973172;28;20093;-63
2021/08/16 06:57:47;;;;;;;9.25;4.75;;;22.70;83.30;;;;;;4999300;28;20084;-63
2021/08/16 07:00:13;;;;;;;6.32;4.85;;;22.70;83.00;;;;;;4977735;28;20038;-63
2021/08/16 07:02:39;;;;;;;10.82;4.95;;;22.80;83.10;;;;;;4977797;28;20053;-63
2021/08/16 07:05:09;;;;;;;8.32;4.80;;;22.80;83.10;;;;;;4978269;28;20567;-63
2021/08/16 07:07:35;;;;;;;7.32;4.63;;;22.90;83.00;;;;;;4992518;28;20529;-62
2021/08/16 07:10:02;;;;;;;6.28;4.55;;;22.90;82.70;;;;;;4974401;28;20023;-63
2021/08/16 07:12:27;;;;;;;10.35;4.90;;;23.00;82.20;;;;;;4980455;28;20080;-63
2021/08/16 07:14:54;;;;;;;5.03;4.53;;;23.00;81.80;;;;;;4987670;28;20121;-63
2021/08/16 07:17:20;;;;;;;6.82;4.70;;;23.10;81.80;;;;;;4981814;28;20165;-63
2021/08/16 07:19:45;;;;;;;8.65;5.40;;;23.10;81.60;;;;;;4979656;28;20562;-63
2021/08/16 07:22:11;;;;;;;8.02;4.78;;;23.10;81.20;;;;;;4979587;28;20054;-63
2021/08/16 07:24:36;;;;;;;5.18;4.68;;;23.20;81.20;;;;;;4983925;28;20037;-63
2021/08/16 07:27:02;;;;;;;7.35;4.95;;;23.20;81.10;;;;;;4975767;28;20045;-63
2021/08/16 07:29:30;;;;;;;6.88;5.18;;;23.30;81.00;;;;;;4983550;28;20417;-63
2021/08/16 07:31:56;;;;;;;9.20;5.95;;;23.30;80.70;;;;;;4994704;28;20043;-63
2021/08/16 07:34:22;;;;;;;5.93;5.32;;;23.30;80.50;;;;;;4980123;28;20031;-62
2021/08/16 07:36:49;;;;;;;8.18;5.57;;;23.30;79.80;;;;;;4979040;28;21952;-63
2021/08/16 07:39:16;;;;;;;6.57;5.63;;;23.40;79.30;;;;;;4978484;28;20494;-63
2021/08/16 07:41:41;;;;;;;6.05;5.45;;;23.40;78.50;;;;;;4972038;28;20041;-63
2021/08/16 07:44:07;;;;;;;8.10;5.82;;;23.40;77.90;;;;;;4973095;28;20034;-63
2021/08/16 07:46:33;;;;;;;6.53;5.80;;;23.40;77.70;;;;;;4976282;28;20117;-63
2021/08/16 07:48:58;;;;;;;6.93;5.57;;;23.40;77.50;;;;;;4976451;28;20039;-63
2021/08/16 07:51:24;;;;;;;6.75;5.53;;;23.30;76.10;;;;;;4969839;28;20035;-63
2021/08/16 07:53:50;;;;;;;7.55;5.07;;;23.20;75.70;;;;;;4971043;28;20498;-63
2021/08/16 07:56:15;;;;;;;6.35;5.03;;;23.20;75.40;;;;;;4969707;28;20039;-63
2021/08/16 07:58:41;;;;;;;7.97;5.13;;;23.10;75.40;;;;;;4953291;28;20038;-63
2021/08/16 08:01:06;;;;;;;8.25;5.43;;;23.00;75.30;;;;;;4958259;28;20214;-62
2021/08/16 08:03:32;;;;;;;7.63;5.38;;;22.90;75.30;;;;;;4958246;28;20035;-63
2021/08/16 08:05:58;;;;;;;6.13;5.30;;;22.80;75.50;;;;;;4959837;28;20039;-63
2021/08/16 08:08:24;;;;;;;9.90;5.30;;;22.70;75.40;;;;;;4956842;28;20046;-63
2021/08/16 08:10:49;;;;;;;6.20;5.00;;;22.60;75.90;;;;;;4949164;28;20046;-63
2021/08/16 08:13:16;;;;;;;10.93;5.65;;;22.50;76.10;;;;;;4962222;28;20073;-63
2021/08/16 08:15:41;;;;;;;11.13;5.70;;;22.50;76.30;;;;;;4967890;28;20630;-63
2021/08/16 08:18:10;;;;;;;8.27;6.15;;;22.50;76.60;;;;;;4969952;28;20055;-63
2021/08/16 08:20:35;;;;;;;6.50;5.45;;;22.40;76.90;;;;;;4956690;28;20105;-63
2021/08/16 08:23:02;;;;;;;8.60;5.53;;;22.40;76.80;;;;;;4965437;28;20035;-63
2021/08/16 08:25:28;;;;;;;7.65;4.88;;;22.40;76.20;;;;;;4959462;28;20049;-63
2021/08/16 08:27:53;;;;;;;6.88;4.90;;;22.40;75.90;;;;;;4971524;28;20039;-63
2021/08/16 08:30:19;;;;;;;9.77;4.97;;;22.50;76.20;;;;;;4957865;28;20038;-62
2021/08/16 08:32:54;;;;;;;6.78;4.80;;;22.50;74.90;;;;;;4965023;28;20042;-63
2021/08/16 08:35:21;;;;;;;8.18;4.97;;;22.50;73.90;;;;;;4958956;28;20038;-63
2021/08/16 08:37:48;;;;;;;6.70;4.70;;;22.40;74.80;;;;;;4953781;28;20082;-63
2021/08/16 08:40:14;;;;;;;7.57;5.03;;;22.40;74.70;;;;;;4956645;28;20043;-63
2021/08/16 08:42:39;;;;;;;6.68;4.43;;;22.40;74.80;;;;;;4972452;28;20027;-63
2021/08/16 08:45:07;;;;;;;5.57;4.57;;;22.40;74.00;;;;;;4958050;28;20145;-63
2021/08/16 08:47:34;;;;;;;10.10;4.68;;;22.40;73.70;;;;;;4957849;28;20616;-63
2021/08/16 08:50:01;;;;;;;6.25;4.40;;;22.40;73.30;;;;;;4967077;28;20412;-63
2021/08/16 08:52:26;;;;;;;5.95;4.78;;;22.40;74.40;;;;;;4954987;28;20049;-63
2021/08/16 08:54:58;;;;;;;6.50;5.13;;;22.30;74.20;;;;;;4957429;28;20038;-63
2021/08/16 08:57:27;;;;;;;6.80;4.47;;;22.40;73.90;;;;;;4961952;28;20685;-63
2021/08/16 08:59:53;;;;;;;5.53;4.25;;;22.40;74.50;;;;;;4960171;28;20050;-63
2021/08/16 09:02:20;;;;;;;6.10;4.30;;;22.40;74.10;;;;;;4961776;28;20047;-63
2021/08/16 09:04:53;;;;;;;5.78;4.07;;;22.50;73.70;;;;;;4970823;28;20530;-63
2021/08/16 09:07:32;;;;;;;7.18;3.85;;;22.60;72.30;;;;;;4970202;28;20517;-63
2021/08/16 09:09:58;;;;;;;5.63;3.63;;;22.60;70.20;;;;;;4974151;28;20039;-63
2021/08/16 09:12:35;;;;;;;4.82;3.88;;;22.60;70.70;;;;;;4969925;28;20035;-63
2021/08/16 09:15:02;;;;;;;7.03;4.03;;;22.60;69.70;;;;;;4978848;28;20526;-64
2021/08/16 09:17:32;;;;;;;6.00;3.85;;;22.60;69.20;;;;;;4978587;28;20039;-64
2021/08/16 09:20:13;;;;;;;5.60;3.67;;;22.60;68.20;;;;;;4980111;28;20034;-64
2021/08/16 09:22:38;;;;;;;6.15;3.72;;;22.70;67.40;;;;;;4975817;28;20537;-65
2021/08/16 09:25:10;;;;;;;4.55;3.65;;;22.70;68.60;;;;;;4982830;28;20710;-64
2021/08/16 09:27:47;;;;;;;5.70;3.60;;;22.70;68.60;;;;;;4972422;28;20122;-64
2021/08/16 09:30:16;;;;;;;6.43;3.20;;;22.70;68.60;;;;;;4980828;28;20125;-64
2021/08/16 09:32:43;;;;;;;6.40;3.38;;;22.70;68.30;;;;;;4979397;28;20046;-64
2021/08/16 09:35:14;;;;;;;6.72;3.10;;;22.80;68.10;;;;;;4982125;28;20046;-64
2021/08/16 09:37:41;;;;;;;3.65;3.05;;;22.80;68.10;;;;;;4975552;28;20057;-64
2021/08/16 09:40:10;;;;;;;6.05;3.28;;;22.90;69.20;;;;;;4976989;28;20045;-64
2021/08/16 09:42:50;;;;;;;4.45;3.38;;;22.90;68.60;;;;;;4971324;28;20077;-63
2021/08/16 09:45:28;;;;;;;5.05;3.45;;;23.00;67.40;;;;;;4983908;28;20031;-63
2021/08/16 09:47:58;;;;;;;5.57;3.80;;;23.10;66.60;;;;;;4983631;28;20031;-63
2021/08/16 09:50:37;;;;;;;3.30;3.00;;;23.20;67.50;;;;;;4982683;28;20122;-63
2021/08/16 09:53:09;;;;;;;4.35;3.28;;;23.40;67.80;;;;;;4981555;28;20038;-64
2021/08/16 09:55:40;;;;;;;3.35;3.05;;;23.40;67.00;;;;;;4984460;28;20038;-64
2021/08/16 09:58:13;;;;;;;4.00;3.20;;;23.50;66.60;;;;;;4983578;28;20030;-64
2021/08/16 10:00:39;;;;;;;4.00;3.00;;;23.60;66.40;;;;;;4984061;28;20375;-64
2021/08/16 10:03:07;;;;;;;3.20;2.90;;;23.60;66.40;;;;;;4982549;28;20041;-64
2021/08/16 10:05:37;;;;;;;5.13;3.22;;;23.70;65.90;;;;;;4986710;28;20391;-64
2021/08/16 10:08:08;;;;;;;5.72;3.03;;;23.60;65.50;;;;;;4985598;28;20073;-63
2021/08/16 10:10:39;;;;;;;3.97;2.90;;;23.70;65.20;;;;;;4980084;28;20153;-63
2021/08/16 10:13:07;;;;;;;4.45;3.00;;;23.60;65.00;;;;;;4984900;28;20045;-64
2021/08/16 10:15:45;;;;;;;5.60;2.97;;;23.60;64.80;;;;;;4982245;28;20621;-64
2021/08/16 10:18:14;;;;;;;3.88;2.60;;;23.60;63.30;;;;;;4983241;28;20067;-64
2021/08/16 10:20:40;;;;;;;4.22;2.60;;;23.50;64.10;;;;;;4984451;28;20069;-63
2021/08/16 10:23:23;;;;;;;3.28;2.78;;;23.50;64.30;;;;;;4978180;28;20405;-63
2021/08/16 10:25:51;;;;;;;3.00;2.50;;;23.40;62.60;;;;;;4984810;28;20042;-64
2021/08/16 10:28:34;;;;;;;5.43;2.75;;;23.40;64.20;;;;;;4984822;28;20113;-64
2021/08/16 10:31:03;;;;;;;2.85;2.50;;;23.40;63.30;;;;;;4981977;28;20049;-64
2021/08/16 10:33:29;;;;;;;3.30;2.40;;;23.30;64.80;;;;;;4994282;28;20058;-64
2021/08/16 10:35:57;;;;;;;3.10;2.50;;;23.30;65.00;;;;;;4983529;28;20042;-64
2021/08/16 10:38:24;;;;;;;4.03;2.67;;;23.30;64.00;;;;;;4999158;28;20034;-62
2021/08/16 10:40:53;;;;;;;3.13;2.83;;;23.30;63.90;;;;;;4982610;28;20440;-64
2021/08/16 10:43:20;;;;;;;2.40;2.20;;;23.30;64.60;;;;;;4978826;28;20038;-63
2021/08/16 10:45:48;;;;;;;3.42;2.35;;;23.40;64.40;;;;;;4983866;28;20034;-64
2021/08/16 10:48:40;;;;;;;4.45;2.72;;;23.30;63.90;;;;;;4983096;28;20042;-66
2021/08/16 10:51:11;;;;;;;4.10;2.53;;;23.40;64.80;;;;;;4982215;28;20069;-64
2021/08/16 10:53:53;;;;;;;2.53;2.30;;;23.40;64.30;;;;;;4997769;28;20038;-64
2021/08/16 10:56:23;;;;;;;2.65;2.33;;;23.40;63.90;;;;;;4983293;28;20041;-64
2021/08/16 10:58:50;;;;;;;3.00;2.63;;;23.40;64.80;;;;;;4982607;28;20043;-63
2021/08/16 11:01:30;;;;;;;4.35;2.38;;;23.40;64.10;;;;;;4984267;28;20037;-64
2021/08/16 11:04:03;;;;;;;3.72;2.30;;;23.40;63.30;;;;;;4983227;28;20030;-64
2021/08/16 11:06:29;;;;;;;3.65;2.38;;;23.40;64.00;;;;;;4981814;28;20132;-63
2021/08/16 11:08:58;;;;;;;2.88;2.28;;;23.40;63.80;;;;;;4983712;28;20039;-64
2021/08/16 11:11:24;;;;;;;2.55;2.30;;;23.40;62.40;;;;;;4978709;28;20031;-64
2021/08/16 11:13:50;;;;;;;3.10;2.40;;;23.40;63.40;;;;;;4965385;28;20050;-64
2021/08/16 11:16:15;;;;;;;2.30;2.10;;;23.40;63.40;;;;;;4980140;28;20097;-64
2021/08/16 11:18:52;;;;;;;3.10;2.28;;;23.40;63.50;;;;;;4998635;28;20467;-64
2021/08/16 11:21:21;;;;;;;3.20;2.20;;;23.40;63.40;;;;;;4983964;28;20506;-64
2021/08/16 11:23:59;;;;;;;2.35;2.15;;;23.40;63.30;;;;;;4983624;28;20631;-64
2021/08/16 11:26:26;;;;;;;2.63;2.30;;;23.30;62.70;;;;;;4984174;28;20031;-64
2021/08/16 11:29:05;;;;;;;3.72;2.58;;;23.30;64.10;;;;;;4979753;28;20041;-64
2021/08/16 11:31:32;;;;;;;4.15;2.63;;;23.20;62.20;;;;;;4984170;28;20089;-64
2021/08/16 11:34:08;;;;;;;4.25;2.15;;;23.20;63.10;;;;;;4974640;28;20529;-64
2021/08/16 11:36:35;;;;;;;3.47;2.35;;;23.20;62.70;;;;;;4984342;28;20125;-64
2021/08/16 11:39:02;;;;;;;3.58;2.25;;;23.10;62.60;;;;;;4981771;28;20031;-64
2021/08/16 11:41:33;;;;;;;3.28;2.53;;;23.00;62.90;;;;;;4984634;28;20038;-64
2021/08/16 11:44:16;;;;;;;5.47;2.80;;;22.90;62.60;;;;;;4984100;28;20031;-64
2021/08/16 11:46:44;;;;;;;4.03;2.40;;;22.90;62.20;;;;;;4984087;28;20034;-64
2021/08/16 11:49:11;;;;;;;5.05;2.60;;;22.80;63.80;;;;;;4981917;28;20038;-64
2021/08/16 11:51:41;;;;;;;3.83;2.50;;;22.70;64.10;;;;;;4981305;28;20042;-64
2021/08/16 11:54:07;;;;;;;3.33;2.50;;;22.70;64.50;;;;;;4995728;28;20031;-64
2021/08/16 11:56:33;;;;;;;3.38;2.42;;;22.60;64.90;;;;;;4983817;28;20036;-64
2021/08/16 11:58:58;;;;;;;2.47;2.28;;;22.60;65.10;;;;;;4986185;28;20526;-64
2021/08/16 12:01:24;;;;;;;3.78;2.42;;;22.50;65.70;;;;;;4985744;28;20039;-64
2021/08/16 12:03:51;;;;;;;4.38;2.35;;;22.50;65.90;;;;;;4984235;28;20096;-64
2021/08/16 12:06:17;;;;;;;4.65;2.30;;;22.50;66.90;;;;;;4987366;28;20035;-64
2021/08/16 12:08:43;;;;;;;2.90;2.70;;;22.50;66.60;;;;;;4986681;28;20045;-64
2021/08/16 12:11:13;;;;;;;2.60;2.40;;;22.50;66.80;;;;;;4982261;28;20034;-64
2021/08/16 12:13:40;;;;;;;5.88;2.40;;;22.40;67.10;;;;;;4982923;28;20426;-64
2021/08/16 12:16:07;;;;;;;3.63;2.35;;;22.40;66.10;;;;;;4987773;28;20035;-64
2021/08/16 12:18:33;;;;;;;4.32;2.72;;;22.40;65.80;;;;;;4980612;28;20069;-64
2021/08/16 12:21:00;;;;;;;5.75;2.40;;;22.40;65.70;;;;;;4985867;28;20066;-64
2021/08/16 12:23:37;;;;;;;2.63;2.20;;;22.40;65.80;;;;;;4984193;28;20113;-64
2021/08/16 12:26:06;;;;;;;7.43;2.60;;;22.30;65.20;;;;;;4978789;28;20540;-64
2021/08/16 12:28:43;;;;;;;3.25;2.28;;;22.30;65.40;;;;;;4983240;28;20038;-64
2021/08/16 12:31:21;;;;;;;4.05;2.67;;;22.30;65.30;;;;;;4983453;28;20034;-64
2021/08/16 12:33:54;;;;;;;2.90;2.25;;;22.30;65.20;;;;;;4986407;28;20041;-64
2021/08/16 12:36:35;;;;;;;5.72;2.42;;;22.30;65.20;;;;;;4986163;28;20034;-64
2021/08/16 12:39:04;;;;;;;3.55;2.60;;;22.30;65.90;;;;;;4979984;28;20030;-64
2021/08/16 12:41:32;;;;;;;4.97;2.38;;;22.30;65.70;;;;;;4985185;28;20038;-64
2021/08/16 12:43:59;;;;;;;2.42;1.98;;;22.30;65.90;;;;;;4989821;28;20035;-63
2021/08/16 12:46:32;;;;;;;3.20;2.17;;;22.40;66.30;;;;;;4985938;28;20034;-64